sensor_id;sensor_type;location;lat;lon;timestamp;pressure;altitude;pressure_sealevel;temperature;humidity
75418;BME280;63997;52.112;5.420;2024-03-17T00:00:20;102397.81;;;3.61;100.00
75418;BME280;63997;52.112;5.420;2024-03-17T00:02:46;102400.44;;;3.61;100.00
75418;BME280;63997;52.112;5.420;2024-03-17T00:05:12;102401.25;;;3.61;100.00
75418;BME280;63997;52.112;5.420;2024-03-17T00:07:41;102395.41;;;3.59;100.00
75418;BME280;63997;52.112;5.420;2024-03-17T00:10:07;102396.22;;;3.60;100.00
75418;BME280;63997;52.112;5.420;2024-03-17T00:12:34;102388.31;;;3.60;100.00
75418;BME280;63997;52.112;5.420;2024-03-17T00:15:00;102384.56;;;3.56;100.00
75418;BME280;63997;52.112;5.420;2024-03-17T00:17:26;102380.78;;;3.52;100.00
75418;BME280;63997;52.112;5.420;2024-03-17T00:19:51;102387.09;;;3.51;100.00
75418;BME280;63997;52.112;5.420;2024-03-17T00:22:17;102377.59;;;3.50;100.00
75418;BME280;63997;52.112;5.420;2024-03-17T00:24:43;102385.81;;;3.53;100.00
75418;BME280;63997;52.112;5.420;2024-03-17T00:27:10;102376.13;;;3.54;100.00
75418;BME280;63997;52.112;5.420;2024-03-17T00:29:37;102378.25;;;3.57;100.00
75418;BME280;63997;52.112;5.420;2024-03-17T00:32:03;102382.47;;;3.58;100.00
75418;BME280;63997;52.112;5.420;2024-03-17T00:34:29;102381.44;;;3.59;100.00
75418;BME280;63997;52.112;5.420;2024-03-17T00:36:54;102373.78;;;3.57;100.00
75418;BME280;63997;52.112;5.420;2024-03-17T00:39:20;102381.44;;;3.59;100.00
75418;BME280;63997;52.112;5.420;2024-03-17T00:41:45;102369.31;;;3.58;100.00
75418;BME280;63997;52.112;5.420;2024-03-17T00:44:11;102373.00;;;3.57;100.00
75418;BME280;63997;52.112;5.420;2024-03-17T00:46:36;102359.28;;;3.55;100.00
75418;BME280;63997;52.112;5.420;2024-03-17T00:49:02;102363.75;;;3.54;100.00
75418;BME280;63997;52.112;5.420;2024-03-17T00:51:27;102357.69;;;3.54;100.00
75418;BME280;63997;52.112;5.420;2024-03-17T00:53:53;102358.72;;;3.53;100.00
75418;BME280;63997;52.112;5.420;2024-03-17T00:56:19;102361.81;;;3.50;100.00
75418;BME280;63997;52.112;5.420;2024-03-17T00:58:45;102363.88;;;3.48;100.00
75418;BME280;63997;52.112;5.420;2024-03-17T01:01:12;102361.47;;;3.46;100.00
75418;BME280;63997;52.112;5.420;2024-03-17T01:03:37;102356.56;;;3.50;100.00
75418;BME280;63997;52.112;5.420;2024-03-17T01:06:04;102363.16;;;3.52;100.00
75418;BME280;63997;52.112;5.420;2024-03-17T01:08:30;102354.47;;;3.52;100.00
75418;BME280;63997;52.112;5.420;2024-03-17T01:10:55;102360.78;;;3.51;100.00
75418;BME280;63997;52.112;5.420;2024-03-17T01:13:21;102350.50;;;3.49;100.00
75418;BME280;63997;52.112;5.420;2024-03-17T01:15:51;102345.00;;;3.51;100.00
75418;BME280;63997;52.112;5.420;2024-03-17T01:18:17;102345.00;;;3.51;100.00
75418;BME280;63997;52.112;5.420;2024-03-17T01:20:42;102345.56;;;3.53;100.00
75418;BME280;63997;52.112;5.420;2024-03-17T01:23:08;102343.50;;;3.55;100.00
75418;BME280;63997;52.112;5.420;2024-03-17T01:25:34;102338.25;;;3.55;100.00
75418;BME280;63997;52.112;5.420;2024-03-17T01:28:03;102339.03;;;3.55;100.00
75418;BME280;63997;52.112;5.420;2024-03-17T01:30:29;102344.31;;;3.55;100.00
75418;BME280;63997;52.112;5.420;2024-03-17T01:32:55;102323.25;;;3.55;100.00
75418;BME280;63997;52.112;5.420;2024-03-17T01:35:20;102332.50;;;3.58;100.00
75418;BME280;63997;52.112;5.420;2024-03-17T01:37:47;102326.19;;;3.59;100.00
75418;BME280;63997;52.112;5.420;2024-03-17T01:40:13;102324.63;;;3.58;100.00
75418;BME280;63997;52.112;5.420;2024-03-17T01:42:40;102321.19;;;3.57;100.00
75418;BME280;63997;52.112;5.420;2024-03-17T01:47:53;102310.34;;;3.54;100.00
75418;BME280;63997;52.112;5.420;2024-03-17T01:50:19;102305.91;;;3.54;100.00
75418;BME280;63997;52.112;5.420;2024-03-17T01:53:01;102306.44;;;3.56;100.00
75418;BME280;63997;52.112;5.420;2024-03-17T01:55:34;102311.16;;;3.54;100.00
75418;BME280;63997;52.112;5.420;2024-03-17T01:58:00;102306.69;;;3.55;100.00
75418;BME280;63997;52.112;5.420;2024-03-17T02:00:27;102305.66;;;3.56;100.00
75418;BME280;63997;52.112;5.420;2024-03-17T02:02:54;102308.28;;;3.56;100.00
75418;BME280;63997;52.112;5.420;2024-03-17T02:05:19;102301.44;;;3.55;100.00
75418;BME280;63997;52.112;5.420;2024-03-17T02:07:45;102297.75;;;3.56;100.00
75418;BME280;63997;52.112;5.420;2024-03-17T02:10:10;102306.19;;;3.58;100.00
75418;BME280;63997;52.112;5.420;2024-03-17T02:12:37;102297.50;;;3.57;100.00
75418;BME280;63997;52.112;5.420;2024-03-17T02:15:04;102292.25;;;3.57;100.00
75418;BME280;63997;52.112;5.420;2024-03-17T02:17:31;102302.06;;;3.62;100.00
75418;BME280;63997;52.112;5.420;2024-03-17T02:19:57;102300.09;;;3.69;100.00
75418;BME280;63997;52.112;5.420;2024-03-17T02:22:22;102294.13;;;3.74;100.00
75418;BME280;63997;52.112;5.420;2024-03-17T02:24:49;102296.28;;;3.77;100.00
75418;BME280;63997;52.112;5.420;2024-03-17T02:27:14;102288.72;;;3.80;100.00
75418;BME280;63997;52.112;5.420;2024-03-17T02:29:40;102282.19;;;3.83;100.00
75418;BME280;63997;52.112;5.420;2024-03-17T02:32:06;102284.13;;;3.87;100.00
75418;BME280;63997;52.112;5.420;2024-03-17T02:34:37;102292.31;;;3.91;100.00
75418;BME280;63997;52.112;5.420;2024-03-17T02:37:04;102282.66;;;3.96;100.00
75418;BME280;63997;52.112;5.420;2024-03-17T02:39:31;102279.88;;;4.03;100.00
75418;BME280;63997;52.112;5.420;2024-03-17T02:42:03;102274.47;;;4.10;100.00
75418;BME280;63997;52.112;5.420;2024-03-17T02:44:31;102268.16;;;4.11;100.00
75418;BME280;63997;52.112;5.420;2024-03-17T02:47:01;102281.88;;;4.13;100.00
75418;BME280;63997;52.112;5.420;2024-03-17T02:49:28;102272.47;;;4.17;100.00
75418;BME280;63997;52.112;5.420;2024-03-17T02:52:01;102276.44;;;4.19;100.00
75418;BME280;63997;52.112;5.420;2024-03-17T02:54:27;102273.09;;;4.24;100.00
75418;BME280;63997;52.112;5.420;2024-03-17T02:56:52;102273.16;;;4.29;100.00
75418;BME280;63997;52.112;5.420;2024-03-17T02:59:18;102280.09;;;4.35;100.00
75418;BME280;63997;52.112;5.420;2024-03-17T03:01:43;102273.31;;;4.39;100.00
75418;BME280;63997;52.112;5.420;2024-03-17T03:04:10;102277.06;;;4.43;100.00
75418;BME280;63997;52.112;5.420;2024-03-17T03:06:36;102260.78;;;4.46;100.00
75418;BME280;63997;52.112;5.420;2024-03-17T03:09:02;102264.28;;;4.52;100.00
75418;BME280;63997;52.112;5.420;2024-03-17T03:11:30;102265.69;;;4.60;100.00
75418;BME280;63997;52.112;5.420;2024-03-17T03:13:56;102272.63;;;4.66;100.00
75418;BME280;63997;52.112;5.420;2024-03-17T03:16:22;102265.28;;;4.68;100.00
75418;BME280;63997;52.112;5.420;2024-03-17T03:18:47;102265.03;;;4.69;100.00
75418;BME280;63997;52.112;5.420;2024-03-17T03:21:13;102261.91;;;4.72;100.00
75418;BME280;63997;52.112;5.420;2024-03-17T03:23:39;102266.94;;;4.74;100.00
75418;BME280;63997;52.112;5.420;2024-03-17T03:26:05;102259.34;;;4.77;100.00
75418;BME280;63997;52.112;5.420;2024-03-17T03:28:32;102259.41;;;4.83;100.00
75418;BME280;63997;52.112;5.420;2024-03-17T03:30:59;102269.78;;;4.89;100.00
75418;BME280;63997;52.112;5.420;2024-03-17T03:33:24;102268.78;;;4.95;100.00
75418;BME280;63997;52.112;5.420;2024-03-17T03:35:50;102265.41;;;5.00;100.00
75418;BME280;63997;52.112;5.420;2024-03-17T03:38:17;102262.03;;;5.04;100.00
75418;BME280;63997;52.112;5.420;2024-03-17T03:40:43;102256.81;;;5.10;100.00
75418;BME280;63997;52.112;5.420;2024-03-17T03:43:09;102252.63;;;5.14;100.00
75418;BME280;63997;52.112;5.420;2024-03-17T03:45:36;102255.59;;;5.17;100.00
75418;BME280;63997;52.112;5.420;2024-03-17T03:48:02;102251.41;;;5.21;100.00
75418;BME280;63997;52.112;5.420;2024-03-17T03:50:28;102249.59;;;5.22;100.00
75418;BME280;63997;52.112;5.420;2024-03-17T03:52:54;102243.00;;;5.24;100.00
75418;BME280;63997;52.112;5.420;2024-03-17T03:55:19;102239.06;;;5.27;100.00
75418;BME280;63997;52.112;5.420;2024-03-17T03:57:45;102231.16;;;5.27;100.00
75418;BME280;63997;52.112;5.420;2024-03-17T04:00:14;102228.03;;;5.30;100.00
75418;BME280;63997;52.112;5.420;2024-03-17T04:02:43;102225.94;;;5.32;100.00
75418;BME280;63997;52.112;5.420;2024-03-17T04:05:09;102221.22;;;5.34;100.00
75418;BME280;63997;52.112;5.420;2024-03-17T04:07:35;102214.88;;;5.35;100.00
75418;BME280;63997;52.112;5.420;2024-03-17T04:10:02;102215.69;;;5.36;100.00
75418;BME280;63997;52.112;5.420;2024-03-17T04:12:28;102191.69;;;5.37;100.00
75418;BME280;63997;52.112;5.420;2024-03-17T04:14:57;102196.97;;;5.37;100.00
75418;BME280;63997;52.112;5.420;2024-03-17T04:17:23;102195.91;;;5.38;100.00
75418;BME280;63997;52.112;5.420;2024-03-17T04:19:52;102191.69;;;5.37;100.00
75418;BME280;63997;52.112;5.420;2024-03-17T04:22:18;102194.31;;;5.37;100.00
75418;BME280;63997;52.112;5.420;2024-03-17T04:24:47;102192.47;;;5.38;100.00
75418;BME280;63997;52.112;5.420;2024-03-17T04:27:19;102203.03;;;5.38;100.00
75418;BME280;63997;52.112;5.420;2024-03-17T04:29:49;102196.16;;;5.37;100.00
75418;BME280;63997;52.112;5.420;2024-03-17T04:32:15;102194.31;;;5.37;100.00
75418;BME280;63997;52.112;5.420;2024-03-17T04:34:40;102191.44;;;5.39;100.00
75418;BME280;63997;52.112;5.420;2024-03-17T04:37:06;102182.72;;;5.38;100.00
75418;BME280;63997;52.112;5.420;2024-03-17T04:39:31;102174.00;;;5.38;100.00
75418;BME280;63997;52.112;5.420;2024-03-17T04:41:57;102175.84;;;5.37;100.00
75418;BME280;63997;52.112;5.420;2024-03-17T04:44:22;102172.41;;;5.37;100.00
75418;BME280;63997;52.112;5.420;2024-03-17T04:46:48;102174.28;;;5.36;100.00
75418;BME280;63997;52.112;5.420;2024-03-17T04:49:14;102177.97;;;5.35;100.00
75418;BME280;63997;52.112;5.420;2024-03-17T04:51:39;102171.09;;;5.34;100.00
75418;BME280;63997;52.112;5.420;2024-03-17T04:54:05;102172.69;;;5.35;100.00
75418;BME280;63997;52.112;5.420;2024-03-17T04:56:33;102175.31;;;5.35;100.00
75418;BME280;63997;52.112;5.420;2024-03-17T04:58:58;102195.13;;;5.38;100.00
75418;BME280;63997;52.112;5.420;2024-03-17T05:01:24;102188.00;;;5.38;100.00
75418;BME280;63997;52.112;5.420;2024-03-17T05:03:53;102190.16;;;5.41;100.00
75418;BME280;63997;52.112;5.420;2024-03-17T05:06:19;102191.72;;;5.42;100.00
75418;BME280;63997;52.112;5.420;2024-03-17T05:08:44;102182.53;;;5.45;100.00
75418;BME280;63997;52.112;5.420;2024-03-17T05:11:10;102188.59;;;5.45;100.00
75418;BME280;63997;52.112;5.420;2024-03-17T05:13:37;102180.16;;;5.48;100.00
75418;BME280;63997;52.112;5.420;2024-03-17T05:16:06;102184.41;;;5.49;100.00
75418;BME280;63997;52.112;5.420;2024-03-17T05:18:31;102192.09;;;5.51;100.00
75418;BME280;63997;52.112;5.420;2024-03-17T05:21:05;102181.75;;;5.49;100.00
75418;BME280;63997;52.112;5.420;2024-03-17T05:23:36;102179.13;;;5.49;100.00
75418;BME280;63997;52.112;5.420;2024-03-17T05:26:05;102185.19;;;5.50;100.00
75418;BME280;63997;52.112;5.420;2024-03-17T05:28:30;102175.69;;;5.49;100.00
75418;BME280;63997;52.112;5.420;2024-03-17T05:30:56;102175.47;;;5.50;100.00
75418;BME280;63997;52.112;5.420;2024-03-17T05:33:23;102177.28;;;5.50;100.00
75418;BME280;63997;52.112;5.420;2024-03-17T05:35:51;102181.53;;;5.51;100.00
75418;BME280;63997;52.112;5.420;2024-03-17T05:38:22;102174.41;;;5.51;100.00
75418;BME280;63997;52.112;5.420;2024-03-17T05:40:59;102176.00;;;5.52;100.00
75418;BME280;63997;52.112;5.420;2024-03-17T05:43:29;102164.38;;;5.53;100.00
75418;BME280;63997;52.112;5.420;2024-03-17T05:45:58;102164.38;;;5.53;100.00
75418;BME280;63997;52.112;5.420;2024-03-17T05:48:24;102164.91;;;5.55;100.00
75418;BME280;63997;52.112;5.420;2024-03-17T05:50:50;102162.28;;;5.55;100.00
75418;BME280;63997;52.112;5.420;2024-03-17T05:53:21;102163.09;;;5.56;100.00
75418;BME280;63997;52.112;5.420;2024-03-17T05:55:50;102173.41;;;5.57;100.00
75418;BME280;63997;52.112;5.420;2024-03-17T05:58:16;102173.41;;;5.57;100.00
75418;BME280;63997;52.112;5.420;2024-03-17T06:00:42;102176.03;;;5.57;100.00
75418;BME280;63997;52.112;5.420;2024-03-17T06:03:10;102181.31;;;5.57;100.00
75418;BME280;63997;52.112;5.420;2024-03-17T06:05:36;102182.09;;;5.58;100.00
75418;BME280;63997;52.112;5.420;2024-03-17T06:08:04;102183.44;;;5.61;100.00
75418;BME280;63997;52.112;5.420;2024-03-17T06:10:31;102179.25;;;5.65;100.00
75418;BME280;63997;52.112;5.420;2024-03-17T06:12:57;102177.16;;;5.67;100.00
75418;BME280;63997;52.112;5.420;2024-03-17T06:15:24;102180.88;;;5.71;100.00
75418;BME280;63997;52.112;5.420;2024-03-17T06:17:51;102176.69;;;5.75;100.00
75418;BME280;63997;52.112;5.420;2024-03-17T06:20:18;102176.16;;;5.78;100.00
75418;BME280;63997;52.112;5.420;2024-03-17T06:22:44;102173.53;;;5.78;100.00
75418;BME280;63997;52.112;5.420;2024-03-17T06:25:11;102169.34;;;5.82;100.00
75418;BME280;63997;52.112;5.420;2024-03-17T06:27:37;102163.56;;;5.85;100.00
75418;BME280;63997;52.112;5.420;2024-03-17T06:30:03;102163.84;;;5.89;100.00
75418;BME280;63997;52.112;5.420;2024-03-17T06:32:33;102169.44;;;5.92;100.00
75418;BME280;63997;52.112;5.420;2024-03-17T06:35:02;102174.22;;;5.95;100.00
75418;BME280;63997;52.112;5.420;2024-03-17T06:37:28;102172.94;;;6.03;100.00
75418;BME280;63997;52.112;5.420;2024-03-17T06:39:53;102169.81;;;6.11;100.00
75418;BME280;63997;52.112;5.420;2024-03-17T06:42:19;102165.13;;;6.18;100.00
75418;BME280;63997;52.112;5.420;2024-03-17T06:44:44;102165.69;;;6.25;100.00
75418;BME280;63997;52.112;5.420;2024-03-17T06:47:10;102157.53;;;6.37;100.00
75418;BME280;63997;52.112;5.420;2024-03-17T06:49:36;102162.31;;;6.45;100.00
75418;BME280;63997;52.112;5.420;2024-03-17T06:52:01;102167.63;;;6.50;100.00
75418;BME280;63997;52.112;5.420;2024-03-17T06:54:28;102170.56;;;6.54;100.00
75418;BME280;63997;52.112;5.420;2024-03-17T06:56:54;102171.34;;;6.54;100.00
75418;BME280;63997;52.112;5.420;2024-03-17T06:59:20;102171.63;;;6.58;100.00
75418;BME280;63997;52.112;5.420;2024-03-17T07:01:49;102168.75;;;6.65;100.00
75418;BME280;63997;52.112;5.420;2024-03-17T07:04:16;102164.00;;;6.72;100.00
75418;BME280;63997;52.112;5.420;2024-03-17T07:06:42;102159.00;;;6.75;100.00
75418;BME280;63997;52.112;5.420;2024-03-17T07:09:08;102157.94;;;6.76;100.00
75418;BME280;63997;52.112;5.420;2024-03-17T07:11:34;102158.22;;;6.80;100.00
75418;BME280;63997;52.112;5.420;2024-03-17T07:14:00;102161.91;;;6.84;100.00
75418;BME280;63997;52.112;5.420;2024-03-17T07:16:26;102161.94;;;6.89;100.00
75418;BME280;63997;52.112;5.420;2024-03-17T07:18:52;102172.00;;;6.97;100.00
75418;BME280;63997;52.112;5.420;2024-03-17T07:21:18;102172.28;;;7.06;100.00
75418;BME280;63997;52.112;5.420;2024-03-17T07:23:44;102181.56;;;7.19;100.00
75418;BME280;63997;52.112;5.420;2024-03-17T07:26:10;102182.91;;;7.36;100.00
75418;BME280;63997;52.112;5.420;2024-03-17T07:28:35;102175.22;;;7.60;100.00
75418;BME280;63997;52.112;5.420;2024-03-17T07:31:08;102174.41;;;7.85;100.00
75418;BME280;63997;52.112;5.420;2024-03-17T07:33:34;102182.09;;;7.92;100.00
75418;BME280;63997;52.112;5.420;2024-03-17T07:35:59;102166.44;;;7.95;100.00
75418;BME280;63997;52.112;5.420;2024-03-17T07:38:27;102162.47;;;8.08;100.00
75418;BME280;63997;52.112;5.420;2024-03-17T07:41:01;102167.72;;;8.18;99.63
75418;BME280;63997;52.112;5.420;2024-03-17T07:43:28;102172.47;;;8.27;98.28
75418;BME280;63997;52.112;5.420;2024-03-17T07:46:04;102168.22;;;8.31;97.80
75418;BME280;63997;52.112;5.420;2024-03-17T07:48:34;102162.38;;;8.39;97.60
75418;BME280;63997;52.112;5.420;2024-03-17T07:51:05;102163.69;;;8.41;96.86
75418;BME280;63997;52.112;5.420;2024-03-17T07:53:32;102164.22;;;8.43;96.78
75418;BME280;63997;52.112;5.420;2024-03-17T07:56:05;102161.56;;;8.48;97.03
75418;BME280;63997;52.112;5.420;2024-03-17T07:58:32;102152.78;;;8.53;97.16
75418;BME280;63997;52.112;5.420;2024-03-17T08:01:02;102156.44;;;8.57;97.13
75418;BME280;63997;52.112;5.420;2024-03-17T08:03:30;102152.19;;;8.61;97.06
75418;BME280;63997;52.112;5.420;2024-03-17T08:05:57;102156.72;;;8.61;96.86
75418;BME280;63997;52.112;5.420;2024-03-17T08:08:23;102158.81;;;8.64;97.11
75418;BME280;63997;52.112;5.420;2024-03-17T08:10:49;102168.09;;;8.66;97.02
75418;BME280;63997;52.112;5.420;2024-03-17T08:13:16;102162.22;;;8.69;97.25
75418;BME280;63997;52.112;5.420;2024-03-17T08:15:42;102164.88;;;8.69;96.89
75418;BME280;63997;52.112;5.420;2024-03-17T08:18:12;102159.56;;;8.69;96.43
75418;BME280;63997;52.112;5.420;2024-03-17T08:20:38;102156.66;;;8.71;96.19
75418;BME280;63997;52.112;5.420;2024-03-17T08:23:05;102154.81;;;8.71;95.61
75418;BME280;63997;52.112;5.420;2024-03-17T08:25:32;102156.38;;;8.72;95.75
75418;BME280;63997;52.112;5.420;2024-03-17T08:27:57;102155.31;;;8.73;95.33
75418;BME280;63997;52.112;5.420;2024-03-17T08:30:23;102155.56;;;8.77;95.94
75418;BME280;63997;52.112;5.420;2024-03-17T08:32:48;102148.91;;;8.80;95.80
75418;BME280;63997;52.112;5.420;2024-03-17T08:35:15;102150.78;;;8.79;95.66
75418;BME280;63997;52.112;5.420;2024-03-17T08:37:40;102145.19;;;8.81;95.64
75418;BME280;63997;52.112;5.420;2024-03-17T08:40:06;102154.75;;;8.82;95.91
75418;BME280;63997;52.112;5.420;2024-03-17T08:42:32;102143.56;;;8.85;95.80
75418;BME280;63997;52.112;5.420;2024-03-17T08:44:58;102145.41;;;8.89;96.29
75418;BME280;63997;52.112;5.420;2024-03-17T08:47:23;102145.41;;;8.89;96.56
75418;BME280;63997;52.112;5.420;2024-03-17T08:49:52;102144.06;;;8.92;96.36
75418;BME280;63997;52.112;5.420;2024-03-17T08:52:18;102143.00;;;8.93;95.75
75418;BME280;63997;52.112;5.420;2024-03-17T08:54:47;102136.59;;;8.99;95.96
75418;BME280;63997;52.112;5.420;2024-03-17T08:57:16;102144.53;;;9.04;95.55
75418;BME280;63997;52.112;5.420;2024-03-17T08:59:41;102147.16;;;9.09;95.10
75418;BME280;63997;52.112;5.420;2024-03-17T09:02:11;102151.34;;;9.15;95.53
75418;BME280;63997;52.112;5.420;2024-03-17T09:04:38;102145.72;;;9.22;95.38
75418;BME280;63997;52.112;5.420;2024-03-17T09:07:03;102130.25;;;9.29;95.25
75418;BME280;63997;52.112;5.420;2024-03-17T09:09:29;102121.44;;;9.39;95.66
75418;BME280;63997;52.112;5.420;2024-03-17T09:11:55;102134.63;;;9.49;95.61
75418;BME280;63997;52.112;5.420;2024-03-17T09:14:20;102121.47;;;9.63;95.38
75418;BME280;63997;52.112;5.420;2024-03-17T09:16:47;102125.59;;;9.74;95.10
75418;BME280;63997;52.112;5.420;2024-03-17T09:19:13;102127.09;;;9.85;94.71
75418;BME280;63997;52.112;5.420;2024-03-17T09:21:39;102123.09;;;9.88;94.18
75418;BME280;63997;52.112;5.420;2024-03-17T09:24:08;102124.13;;;9.87;93.62
75418;BME280;63997;52.112;5.420;2024-03-17T09:26:34;102120.09;;;9.94;94.56
75418;BME280;63997;52.112;5.420;2024-03-17T09:29:01;102119.97;;;10.04;94.60
75418;BME280;63997;52.112;5.420;2024-03-17T09:31:27;102127.88;;;10.10;94.11
75418;BME280;63997;52.112;5.420;2024-03-17T09:33:52;102128.44;;;10.06;92.96
75418;BME280;63997;52.112;5.420;2024-03-17T09:36:18;102129.78;;;10.04;92.13
75418;BME280;63997;52.112;5.420;2024-03-17T09:38:44;102122.91;;;10.03;92.27
75418;BME280;63997;52.112;5.420;2024-03-17T09:41:22;102121.81;;;10.04;91.81
75418;BME280;63997;52.112;5.420;2024-03-17T09:43:50;102129.75;;;10.09;92.17
75418;BME280;63997;52.112;5.420;2024-03-17T09:46:19;102126.97;;;10.19;92.64
75418;BME280;63997;52.112;5.420;2024-03-17T09:48:45;102122.69;;;10.23;91.74
75418;BME280;63997;52.112;5.420;2024-03-17T09:51:18;102123.94;;;10.31;91.86
75418;BME280;63997;52.112;5.420;2024-03-17T09:53:45;102121.94;;;10.42;91.58
75418;BME280;63997;52.112;5.420;2024-03-17T09:56:20;102116.78;;;10.50;91.64
75418;BME280;63997;52.112;5.420;2024-03-17T09:58:48;102124.88;;;10.59;91.12
75418;BME280;63997;52.112;5.420;2024-03-17T10:01:14;102114.09;;;10.69;91.20
75418;BME280;63997;52.112;5.420;2024-03-17T10:03:40;102103.88;;;10.76;90.70
75418;BME280;63997;52.112;5.420;2024-03-17T10:06:07;102102.22;;;10.99;91.24
75418;BME280;63997;52.112;5.420;2024-03-17T10:08:32;102101.66;;;11.16;90.67
75418;BME280;63997;52.112;5.420;2024-03-17T10:10:59;102099.63;;;11.27;89.36
75418;BME280;63997;52.112;5.420;2024-03-17T10:13:25;102101.34;;;11.36;89.31
75418;BME280;63997;52.112;5.420;2024-03-17T10:15:51;102100.06;;;11.48;88.83
75418;BME280;63997;52.112;5.420;2024-03-17T10:18:23;102098.41;;;11.52;88.67
75418;BME280;63997;52.112;5.420;2024-03-17T10:20:49;102106.19;;;11.48;89.05
75418;BME280;63997;52.112;5.420;2024-03-17T10:23:22;102094.44;;;11.49;88.39
75418;BME280;63997;52.112;5.420;2024-03-17T10:25:48;102095.84;;;11.47;87.25
75418;BME280;63997;52.112;5.420;2024-03-17T10:28:15;102092.38;;;11.46;87.82
75418;BME280;63997;52.112;5.420;2024-03-17T10:30:41;102087.16;;;11.55;88.20
75418;BME280;63997;52.112;5.420;2024-03-17T10:33:22;102095.44;;;11.67;87.97
75418;BME280;63997;52.112;5.420;2024-03-17T10:35:48;102079.72;;;11.84;88.24
75418;BME280;63997;52.112;5.420;2024-03-17T10:38:14;102086.13;;;11.97;87.47
75418;BME280;63997;52.112;5.420;2024-03-17T10:40:41;102079.09;;;12.15;86.66
75418;BME280;63997;52.112;5.420;2024-03-17T10:43:07;102084.59;;;12.32;85.56
75418;BME280;63997;52.112;5.420;2024-03-17T10:45:33;102076.25;;;12.48;85.16
75418;BME280;63997;52.112;5.420;2024-03-17T10:48:02;102076.97;;;12.62;84.72
75418;BME280;63997;52.112;5.420;2024-03-17T10:50:35;102071.84;;;12.65;83.57
75418;BME280;63997;52.112;5.420;2024-03-17T10:53:03;102070.59;;;12.63;82.56
75418;BME280;63997;52.112;5.420;2024-03-17T10:55:40;102069.47;;;12.64;82.10
75418;BME280;63997;52.112;5.420;2024-03-17T10:58:17;102064.50;;;12.71;83.47
75418;BME280;63997;52.112;5.420;2024-03-17T11:00:50;102067.41;;;12.83;83.25
75418;BME280;63997;52.112;5.420;2024-03-17T11:03:18;102067.41;;;12.83;82.04
75418;BME280;63997;52.112;5.420;2024-03-17T11:05:47;102058.69;;;12.91;81.72
75418;BME280;63997;52.112;5.420;2024-03-17T11:08:16;102059.50;;;13.01;81.83
75418;BME280;63997;52.112;5.420;2024-03-17T11:10:50;102059.72;;;13.13;80.75
75418;BME280;63997;52.112;5.420;2024-03-17T11:13:29;102057.16;;;13.21;80.68
75418;BME280;63997;52.112;5.420;2024-03-17T11:15:55;102049.78;;;13.27;81.56
75418;BME280;63997;52.112;5.420;2024-03-17T11:21:00;102054.38;;;13.35;81.27
75418;BME280;63997;52.112;5.420;2024-03-17T11:23:41;102058.00;;;13.31;81.49
75418;BME280;63997;52.112;5.420;2024-03-17T11:26:08;102053.97;;;13.19;81.20
75418;BME280;63997;52.112;5.420;2024-03-17T11:31:34;102052.16;;;13.06;81.23
75418;BME280;63997;52.112;5.420;2024-03-17T11:34:01;102051.69;;;13.04;80.95
75418;BME280;63997;52.112;5.420;2024-03-17T11:39:01;102048.13;;;12.86;80.84
75418;BME280;63997;52.112;5.420;2024-03-17T11:41:40;102044.91;;;12.76;81.66
75418;BME280;63997;52.112;5.420;2024-03-17T11:46:59;102043.63;;;12.73;82.15
75418;BME280;63997;52.112;5.420;2024-03-17T11:52:01;102053.06;;;12.57;82.40
75418;BME280;63997;52.112;5.420;2024-03-17T11:54:36;102048.38;;;12.54;83.07
75418;BME280;63997;52.112;5.420;2024-03-17T11:57:03;102044.81;;;12.44;82.45
75418;BME280;63997;52.112;5.420;2024-03-17T11:59:29;102049.22;;;12.27;82.68
75418;BME280;63997;52.112;5.420;2024-03-17T12:01:55;102055.56;;;12.17;83.62
75418;BME280;63997;52.112;5.420;2024-03-17T12:04:23;102045.13;;;12.07;84.52
75418;BME280;63997;52.112;5.420;2024-03-17T12:06:54;102048.19;;;12.00;84.43
75418;BME280;63997;52.112;5.420;2024-03-17T12:09:20;102049.59;;;11.98;85.43
75418;BME280;63997;52.112;5.420;2024-03-17T12:11:48;102041.59;;;11.98;86.28
75418;BME280;63997;52.112;5.420;2024-03-17T12:14:19;102041.47;;;12.03;86.27
75418;BME280;63997;52.112;5.420;2024-03-17T12:16:52;102040.59;;;12.07;86.00
75418;BME280;63997;52.112;5.420;2024-03-17T12:19:18;102035.44;;;12.11;86.10
75418;BME280;63997;52.112;5.420;2024-03-17T12:22:03;102031.44;;;12.22;86.34
75418;BME280;63997;52.112;5.420;2024-03-17T12:24:31;102034.53;;;12.29;86.06
75418;BME280;63997;52.112;5.420;2024-03-17T12:26:58;102019.78;;;12.32;84.88
75418;BME280;63997;52.112;5.420;2024-03-17T12:29:36;102019.19;;;12.35;84.87
75418;BME280;63997;52.112;5.420;2024-03-17T12:34:37;102015.78;;;12.43;83.18
75418;BME280;63997;52.112;5.420;2024-03-17T12:37:04;102020.03;;;12.44;83.66
75418;BME280;63997;52.112;5.420;2024-03-17T12:39:31;102010.75;;;12.41;83.71
75418;BME280;63997;52.112;5.420;2024-03-17T12:42:09;102005.91;;;12.43;84.92
75418;BME280;63997;52.112;5.420;2024-03-17T12:44:56;102008.44;;;12.49;84.14
75418;BME280;63997;52.112;5.420;2024-03-17T12:47:24;101998.38;;;12.45;84.11
75418;BME280;63997;52.112;5.420;2024-03-17T12:49:52;101995.03;;;12.40;83.81
75418;BME280;63997;52.112;5.420;2024-03-17T12:55:06;101985.97;;;12.41;84.08
75418;BME280;63997;52.112;5.420;2024-03-17T12:57:52;101980.78;;;12.44;83.48
75418;BME280;63997;52.112;5.420;2024-03-17T13:00:36;101975.09;;;12.37;84.25
75418;BME280;63997;52.112;5.420;2024-03-17T13:03:06;101975.88;;;12.38;84.75
75418;BME280;63997;52.112;5.420;2024-03-17T13:05:33;101992.19;;;12.36;84.67
75418;BME280;63997;52.112;5.420;2024-03-17T13:07:59;101974.75;;;12.30;84.22
75418;BME280;63997;52.112;5.420;2024-03-17T13:10:26;101976.63;;;12.30;85.11
75418;BME280;63997;52.112;5.420;2024-03-17T13:13:05;101973.53;;;12.36;85.04